MMMZ/MZT METAR and TAF weather

Enter ICAO airport designator
Station Type Date Time Source
MMMZ METAR 2022/06/30 01:42 UTC NOAA

MMMZ 300142Z 28005KT 10SM SCT080 BKN240 29/24 A2995 RMK 8/063 TCU 1QUAD


Station Type Date Time Source
MMMZ Decoded METAR 2022/06/30 01:42 UTC NOAA

Mazatlan / G. Buelna, Mexico (MMMZ) 23-10N 106-16W
Jun 29, 2022 - 09:42 PM EDT / 2022.06.30 0142 UTC
Wind: from the W (280 degrees) at 6 MPH (5 KT):0
Visibility: 10 mile(s):0
Sky conditions: mostly cloudy
Weather: Towering cumulus clouds observed
Temperature: 84 F (29 C)
Dew Point: 75 F (24 C)
Relative Humidity: 74%
Pressure (altimeter): 29.95 in. Hg (1014 hPa)
ob: MMMZ 300142Z 28005KT 10SM SCT080 BKN240 29/24 A2995 RMK 8/063 TCU 1QUAD
cycle: 1

Station Type Date Time Source
MMMZ TAF 2022/06/29 18:12 UTC NOAA

TAF TAF MMMZ 291708Z 2918/3024 28010KT P6SM SCT015 BKN080 BKN250 TX32/3020Z TN26/3012Z
FM300100 34006KT 6SM -RA BKN020 OVC080
TEMPO 3002/3006 3SM TSRA BKN015CB
FM300700 03005KT P6SM SCT020 BKN080
FM301800 28010KT P6SM SCT020 BKN080 BKN250

Example: see airport list